Time;durP1;ratioP1;P1;durP2;ratioP2;P2;SDS_P1;SDS_P2;PMS_P1;PMS_P2;Temp;Humidity;BMP_temperature;BMP_pressure;BME280_temperature;BME280_humidity;BME280_pressure;Samples;Min_cycle;Max_cycle;Signal;HPM_P1;HPM_P2
2022/11/24 00:00:13;;;;;;;1.97;1.73;;;;;;;5.05;92.08;100380.91;6065576;29;20234;-90
2022/11/24 00:03:52;;;;;;;5.33;2.67;;;;;;;5.18;91.82;100384.34;6059783;29;20230;-88
2022/11/24 00:07:13;;;;;;;4.97;2.53;;;;;;;5.07;92.14;100386.97;6074489;29;20236;-90
2022/11/24 00:10:35;;;;;;;11.30;3.80;;;;;;;5.15;92.15;100381.91;6066032;29;20241;-85
2022/11/24 00:13:57;;;;;;;3.80;2.60;;;;;;;5.06;92.46;100385.25;6067271;29;20490;-85
2022/11/24 00:17:18;;;;;;;3.97;3.23;;;;;;;4.95;93.16;100390.53;6070836;29;20237;-84
2022/11/24 00:20:40;;;;;;;5.23;2.70;;;;;;;4.97;93.13;100386.78;6056630;29;20229;-82
2022/11/24 00:24:02;;;;;;;5.73;2.83;;;;;;;4.98;92.98;100391.19;6091833;29;20232;-86
2022/11/24 00:27:23;;;;;;;4.87;3.23;;;;;;;5.05;93.22;100397.75;6067540;29;20288;-83
2022/11/24 00:30:45;;;;;;;3.50;3.20;;;;;;;5.06;92.96;100406.63;6067418;29;20233;-85
2022/11/24 00:34:09;;;;;;;2.63;2.00;;;;;;;4.98;93.48;100409.00;6074085;29;20417;-81
2022/11/24 00:37:31;;;;;;;3.70;3.17;;;;;;;5.03;93.48;100410.38;6060348;29;20242;-83
2022/11/24 00:40:53;;;;;;;3.37;2.53;;;;;;;4.93;93.66;100401.34;6070616;29;20236;-81
2022/11/24 00:44:13;;;;;;;4.43;2.63;;;;;;;4.95;93.79;100407.41;6064843;29;20229;-83
2022/11/24 00:47:34;;;;;;;3.67;2.73;;;;;;;4.81;94.63;100416.44;6061207;29;20320;-83
2022/11/24 00:50:57;;;;;;;4.17;2.63;;;;;;;4.88;94.51;100416.84;6070269;29;20237;-85
2022/11/24 00:54:19;;;;;;;3.00;2.70;;;;;;;4.85;94.93;100417.06;6059054;29;20313;-85
2022/11/24 00:57:40;;;;;;;5.97;2.93;;;;;;;4.96;94.39;100425.16;6075520;29;20244;-82
2022/11/24 01:01:03;;;;;;;4.70;3.10;;;;;;;4.93;94.74;100419.16;6055724;29;20320;-81
2022/11/24 01:04:25;;;;;;;5.60;2.33;;;;;;;4.89;95.00;100421.22;6062891;29;20279;-82
2022/11/24 01:07:46;;;;;;;2.80;2.53;;;;;;;4.91;94.93;100426.44;6088188;29;20739;-84
2022/11/24 01:11:11;;;;;;;2.30;2.03;;;;;;;4.85;95.33;100428.59;6085835;29;20245;-81
2022/11/24 01:14:32;;;;;;;5.37;3.77;;;;;;;5.03;95.37;100434.41;6070670;29;20229;-81
2022/11/24 01:17:53;;;;;;;3.03;2.70;;;;;;;4.99;95.22;100435.59;6075095;29;20228;-86
2022/11/24 01:21:14;;;;;;;8.53;2.70;;;;;;;4.99;95.24;100430.25;6078882;29;20233;-83
2022/11/24 01:24:35;;;;;;;4.27;2.77;;;;;;;4.85;95.97;100431.28;6075623;29;20311;-80
2022/11/24 01:27:58;;;;;;;2.47;2.27;;;;;;;4.88;95.59;100433.72;6075404;29;20241;-81
2022/11/24 01:31:19;;;;;;;2.60;2.40;;;;;;;4.85;96.22;100431.28;6074441;29;20272;-82
2022/11/24 01:34:40;;;;;;;2.50;2.30;;;;;;;5.07;95.88;100438.56;6076734;29;20225;-82
2022/11/24 01:38:00;;;;;;;3.10;2.80;;;;;;;5.02;95.82;100432.72;6073815;29;20248;-82
2022/11/24 01:41:23;;;;;;;4.20;2.53;;;;;;;4.88;96.49;100438.22;6075814;29;20233;-81
2022/11/24 01:44:48;;;;;;;4.23;2.50;;;;;;;4.88;96.89;100436.38;6073783;29;20232;-83
2022/11/24 01:48:20;;;;;;;4.87;4.00;;;;;;;5.02;96.36;100439.88;6264250;23;20326;-82
2022/11/24 01:51:45;;;;;;;2.80;2.60;;;;;;;4.98;96.39;100441.06;6104253;29;20872;-81
2022/11/24 01:55:12;;;;;;;6.07;2.77;;;;;;;5.13;96.16;100440.78;6106182;29;20358;-83
2022/11/24 01:58:34;;;;;;;2.87;2.30;;;;;;;5.16;96.00;100443.22;6080178;29;20834;-81
2022/11/24 02:01:57;;;;;;;5.60;4.47;;;;;;;5.23;95.69;100443.66;6095972;28;20298;-84
2022/11/24 02:05:23;;;;;;;3.13;2.93;;;;;;;4.98;96.31;100452.59;6087168;29;20258;-80
2022/11/24 02:08:50;;;;;;;5.80;3.63;;;;;;;5.06;96.02;100454.72;6085432;29;20237;-82
2022/11/24 02:12:11;;;;;;;4.03;3.17;;;;;;;4.92;97.00;100465.53;6095555;29;20232;-81
2022/11/24 02:15:32;;;;;;;4.20;2.50;;;;;;;4.96;97.06;100453.66;6089130;28;20679;-81
2022/11/24 02:18:55;;;;;;;4.40;2.87;;;;;;;4.95;97.39;100474.19;6086106;29;20243;-81
2022/11/24 02:22:22;;;;;;;3.10;2.53;;;;;;;5.05;97.32;100461.84;6095437;29;20240;-82
2022/11/24 02:25:53;;;;;;;3.63;2.23;;;;;;;4.94;97.24;100475.16;6075042;29;20236;-81
2022/11/24 02:29:15;;;;;;;5.33;3.50;;;;;;;4.93;98.15;100468.09;6077767;29;20236;-83
2022/11/24 02:32:40;;;;;;;3.80;3.37;;;;;;;5.02;97.72;100464.78;6082382;29;20597;-82
2022/11/24 02:36:01;;;;;;;2.53;2.33;;;;;;;4.99;97.94;100462.31;6088102;29;20233;-82
2022/11/24 02:39:22;;;;;;;3.67;2.50;;;;;;;4.93;98.11;100461.91;6084708;29;20227;-83
2022/11/24 02:42:45;;;;;;;2.97;2.77;;;;;;;4.95;97.73;100471.50;6084837;29;20236;-83
2022/11/24 02:46:08;;;;;;;5.93;2.53;;;;;;;4.96;97.83;100469.69;6082397;29;20224;-82
2022/11/24 02:49:29;;;;;;;3.20;2.90;;;;;;;4.91;97.90;100466.50;6077479;28;20248;-82
2022/11/24 02:52:50;;;;;;;2.57;2.17;;;;;;;4.91;97.81;100469.16;6091044;28;20492;-81
2022/11/24 02:56:11;;;;;;;4.87;4.10;;;;;;;4.83;98.14;100480.41;6085407;29;20244;-81
2022/11/24 02:59:32;;;;;;;3.20;2.13;;;;;;;4.80;98.16;100478.81;6096795;29;20564;-81
2022/11/24 03:02:54;;;;;;;4.30;2.27;;;;;;;4.78;98.51;100472.72;6081419;29;20355;-82
2022/11/24 03:06:16;;;;;;;2.60;2.40;;;;;;;4.81;98.45;100477.84;6083857;29;20311;-83
2022/11/24 03:09:37;;;;;;;2.63;2.37;;;;;;;4.73;98.62;100485.56;6091202;29;20235;-81
2022/11/24 03:12:59;;;;;;;4.50;3.07;;;;;;;4.79;98.56;100479.78;6078119;29;20625;-82
2022/11/24 03:16:20;;;;;;;3.47;2.33;;;;;;;4.68;98.57;100482.34;6097184;28;20236;-81
2022/11/24 03:19:42;;;;;;;3.23;2.93;;;;;;;4.62;98.92;100482.78;6094015;29;20270;-81
2022/11/24 03:23:03;;;;;;;2.93;2.17;;;;;;;4.57;99.04;100487.59;6078829;29;20233;-80
2022/11/24 03:26:25;;;;;;;3.70;1.97;;;;;;;4.60;99.64;100491.84;6097178;29;20236;-81
2022/11/24 03:29:46;;;;;;;3.00;2.27;;;;;;;4.58;99.25;100504.47;6083483;29;20228;-80
2022/11/24 03:33:07;;;;;;;5.33;2.43;;;;;;;4.62;100.00;100505.94;6077402;29;20267;-80
2022/11/24 03:36:29;;;;;;;3.70;2.80;;;;;;;4.69;99.44;100505.41;6088895;29;20243;-80
2022/11/24 03:39:50;;;;;;;3.83;2.83;;;;;;;4.73;99.48;100509.59;6098720;29;20228;-81
2022/11/24 03:43:11;;;;;;;3.47;2.10;;;;;;;4.84;99.18;100511.47;6080806;28;20229;-82
2022/11/24 03:46:32;;;;;;;2.70;2.47;;;;;;;4.95;98.58;100510.72;6098401;29;20236;-83
2022/11/24 03:49:53;;;;;;;6.10;2.73;;;;;;;4.89;98.70;100522.69;6076684;29;20240;-84
2022/11/24 03:53:15;;;;;;;3.27;3.03;;;;;;;4.89;98.34;100517.34;6081235;29;20237;-81
2022/11/24 03:56:36;;;;;;;2.70;2.50;;;;;;;4.94;98.50;100522.38;6095670;28;20595;-80
2022/11/24 03:59:57;;;;;;;2.40;2.13;;;;;;;4.92;98.42;100525.16;6078734;29;20220;-83
2022/11/24 04:03:19;;;;;;;4.27;2.90;;;;;;;4.93;99.06;100524.19;6076625;29;20930;-83
2022/11/24 04:06:40;;;;;;;2.33;1.87;;;;;;;4.95;98.36;100532.06;6085188;29;20249;-81
2022/11/24 04:10:03;;;;;;;4.20;2.37;;;;;;;4.94;98.03;100549.06;6089991;29;20240;-82
2022/11/24 04:13:25;;;;;;;2.17;1.97;;;;;;;4.96;98.89;100540.00;6079379;29;20244;-83
2022/11/24 04:16:46;;;;;;;2.33;2.17;;;;;;;5.02;98.12;100549.38;6094932;28;20229;-83
2022/11/24 04:20:08;;;;;;;2.53;2.33;;;;;;;5.07;97.72;100557.94;6093439;29;20227;-83
2022/11/24 04:23:29;;;;;;;3.43;2.53;;;;;;;5.00;98.03;100559.31;6081595;29;20223;-83
2022/11/24 04:26:51;;;;;;;3.07;2.70;;;;;;;5.06;98.04;100556.22;6086651;29;20614;-83
2022/11/24 04:30:12;;;;;;;4.47;2.67;;;;;;;5.00;98.55;100556.66;6079459;29;20527;-84
2022/11/24 04:33:34;;;;;;;2.60;2.33;;;;;;;5.10;98.68;100557.69;6085344;28;20323;-81
2022/11/24 04:36:55;;;;;;;3.07;2.13;;;;;;;5.18;97.82;100556.19;6095762;29;20264;-82
2022/11/24 04:40:16;;;;;;;2.20;2.00;;;;;;;5.29;97.53;100560.75;6067757;29;20799;-83
2022/11/24 04:43:39;;;;;;;3.33;2.80;;;;;;;5.33;97.43;100565.78;6078265;29;20228;-82
2022/11/24 04:47:00;;;;;;;3.97;2.00;;;;;;;5.23;97.67;100577.25;6088995;29;20244;-83
2022/11/24 04:50:21;;;;;;;6.50;2.50;;;;;;;5.28;97.76;100580.41;6079406;29;20552;-82
2022/11/24 04:53:42;;;;;;;3.80;2.80;;;;;;;5.35;97.76;100585.22;6076426;29;20236;-82
2022/11/24 04:57:03;;;;;;;2.73;2.53;;;;;;;5.36;97.45;100592.28;6085591;29;20236;-83
2022/11/24 05:00:25;;;;;;;3.53;3.03;;;;;;;5.40;97.76;100588.41;6091232;29;20236;-82
2022/11/24 05:03:46;;;;;;;3.13;2.93;;;;;;;5.49;97.42;100597.59;6078295;29;20232;-82
2022/11/24 05:07:10;;;;;;;7.53;3.60;;;;;;;5.40;97.18;100587.56;6094291;28;20236;-82
2022/11/24 05:10:37;;;;;;;3.33;2.93;;;;;;;5.45;97.31;100594.28;6079640;29;20228;-82
2022/11/24 05:13:58;;;;;;;5.07;3.50;;;;;;;5.44;97.54;100599.75;6084201;29;20232;-81
2022/11/24 05:17:21;;;;;;;2.60;2.37;;;;;;;5.48;96.89;100602.09;6087320;29;20581;-83
2022/11/24 05:20:43;;;;;;;3.73;2.80;;;;;;;5.47;97.53;100600.38;6079807;29;20229;-82
2022/11/24 05:24:04;;;;;;;6.07;2.57;;;;;;;5.61;97.07;100605.56;6087080;29;20247;-81
2022/11/24 05:27:26;;;;;;;2.73;2.43;;;;;;;5.66;96.71;100603.44;6080816;29;20232;-80
2022/11/24 05:30:47;;;;;;;3.00;2.33;;;;;;;5.70;96.73;100609.41;6085636;29;20502;-81
2022/11/24 05:34:09;;;;;;;3.13;2.93;;;;;;;5.67;96.19;100613.16;6082631;29;20227;-81
2022/11/24 05:37:30;;;;;;;3.47;2.37;;;;;;;5.62;96.11;100611.78;6088802;29;20232;-81
2022/11/24 05:40:52;;;;;;;3.17;2.30;;;;;;;5.48;97.11;100611.94;6070250;29;20315;-82
2022/11/24 05:44:13;;;;;;;3.10;2.87;;;;;;;5.50;97.58;100618.88;6086262;29;20247;-81
2022/11/24 05:47:34;;;;;;;2.93;2.60;;;;;;;5.56;97.60;100622.91;6085674;29;20225;-81
2022/11/24 05:50:57;;;;;;;4.83;4.33;;;;;;;5.71;97.13;100623.63;6079565;29;20240;-82
2022/11/24 05:54:18;;;;;;;2.60;2.40;;;;;;;5.63;97.44;100629.53;6090013;29;20263;-83
2022/11/24 05:57:39;;;;;;;4.47;2.33;;;;;;;5.64;97.36;100642.78;6089593;29;20256;-82
2022/11/24 06:01:00;;;;;;;6.23;2.83;;;;;;;5.47;98.30;100640.47;6084124;29;20232;-82
2022/11/24 06:04:21;;;;;;;4.03;2.83;;;;;;;5.43;98.32;100643.47;6062747;29;20232;-81
2022/11/24 06:07:44;;;;;;;5.50;3.33;;;;;;;5.41;98.70;100634.72;6098848;28;20252;-81
2022/11/24 06:11:17;;;;;;;3.63;2.70;;;;;;;5.47;98.91;100632.47;6078892;29;20249;-78
2022/11/24 06:14:38;;;;;;;3.73;3.33;;;;;;;5.58;98.92;100640.56;6077460;29;21009;-78
2022/11/24 06:18:00;;;;;;;10.93;3.40;;;;;;;5.69;98.70;100637.13;6064877;29;20622;-77
2022/11/24 06:21:20;;;;;;;3.10;2.80;;;;;;;5.79;98.38;100648.00;6096722;29;20244;-80
2022/11/24 06:24:43;;;;;;;16.90;4.23;;;;;;;5.86;97.90;100647.44;6093007;29;20231;-77
2022/11/24 06:28:05;;;;;;;5.70;4.47;;;;;;;5.88;97.79;100652.72;6084672;29;20240;-78
2022/11/24 06:31:26;;;;;;;5.93;3.40;;;;;;;5.79;97.80;100659.56;6101777;29;20261;-78
2022/11/24 06:34:47;;;;;;;5.60;2.53;;;;;;;5.72;98.31;100662.75;6091130;29;20224;-78
2022/11/24 06:38:08;;;;;;;4.40;3.53;;;;;;;5.63;98.05;100670.47;6089724;28;20621;-79
2022/11/24 06:41:30;;;;;;;6.10;4.00;;;;;;;5.56;98.69;100671.03;6098348;29;20245;-78
2022/11/24 06:44:51;;;;;;;4.97;3.27;;;;;;;5.58;98.79;100674.47;6096554;29;20240;-78
2022/11/24 06:48:12;;;;;;;4.47;2.60;;;;;;;5.75;99.26;100674.13;6083227;28;20244;-79
2022/11/24 06:51:33;;;;;;;6.33;2.57;;;;;;;5.63;98.81;100672.31;6103504;29;20789;-78
2022/11/24 06:54:54;;;;;;;2.47;2.27;;;;;;;5.51;99.02;100686.53;6096436;28;20605;-76
2022/11/24 06:58:16;;;;;;;3.93;2.93;;;;;;;5.42;99.22;100693.38;6085997;29;20236;-77
2022/11/24 07:01:37;;;;;;;4.17;3.30;;;;;;;5.42;99.08;100693.38;6094209;29;20327;-77
2022/11/24 07:04:58;;;;;;;7.60;3.37;;;;;;;5.36;99.83;100704.53;6090067;28;20236;-77
2022/11/24 07:08:18;;;;;;;5.53;3.53;;;;;;;5.43;99.93;100713.81;6082932;28;20232;-72
2022/11/24 07:11:40;;;;;;;4.70;2.83;;;;;;;5.52;100.00;100712.31;6092229;28;20240;-73
2022/11/24 07:15:03;;;;;;;4.93;4.00;;;;;;;5.49;100.00;100710.72;6087484;29;20241;-73
2022/11/24 07:18:24;;;;;;;2.20;2.00;;;;;;;5.66;100.00;100725.56;6090598;29;20256;-80
2022/11/24 07:21:45;;;;;;;6.97;3.83;;;;;;;5.66;99.60;100720.22;6096081;28;20244;-73
2022/11/24 07:25:08;;;;;;;5.37;4.13;;;;;;;5.53;99.17;100714.88;6093104;28;20237;-78
2022/11/24 07:28:30;;;;;;;5.97;3.33;;;;;;;5.46;99.56;100727.00;6087308;29;20229;-79
2022/11/24 07:31:52;;;;;;;4.50;3.43;;;;;;;5.36;99.59;100731.25;6082699;29;20258;-77
2022/11/24 07:35:13;;;;;;;6.90;2.90;;;;;;;5.39;99.86;100733.72;6085811;29;20236;-79
2022/11/24 07:38:35;;;;;;;6.60;4.73;;;;;;;5.37;99.72;100732.97;6087456;28;20236;-78
2022/11/24 07:41:56;;;;;;;6.00;3.30;;;;;;;5.46;99.90;100743.03;6088743;29;20228;-77
2022/11/24 07:45:17;;;;;;;5.70;4.13;;;;;;;5.47;99.85;100750.06;6089717;29;20232;-78
2022/11/24 07:48:40;;;;;;;5.13;3.17;;;;;;;5.56;99.84;100761.94;6087113;29;20240;-78
2022/11/24 07:52:01;;;;;;;4.27;3.80;;;;;;;5.57;99.73;100761.81;6093094;29;20240;-78
2022/11/24 07:55:22;;;;;;;4.43;4.00;;;;;;;5.78;99.33;100763.97;6090676;29;20256;-78
2022/11/24 07:58:42;;;;;;;6.93;3.37;;;;;;;5.68;98.94;100772.63;6082186;29;20319;-76
2022/11/24 08:02:03;;;;;;;6.00;3.10;;;;;;;5.77;99.02;100770.28;6086018;28;20233;-76
2022/11/24 08:05:25;;;;;;;5.20;3.50;;;;;;;5.72;98.90;100775.94;6086568;29;20634;-77
2022/11/24 08:08:46;;;;;;;4.70;3.13;;;;;;;5.72;99.20;100783.97;6084845;28;20224;-77
2022/11/24 08:12:07;;;;;;;9.40;4.30;;;;;;;5.78;98.91;100785.38;6077391;29;21049;-78
2022/11/24 08:15:28;;;;;;;5.13;2.93;;;;;;;5.84;98.84;100793.81;6088165;29;20328;-76
2022/11/24 08:18:51;;;;;;;4.43;2.90;;;;;;;5.92;98.98;100795.97;6083349;29;20233;-76
2022/11/24 08:22:13;;;;;;;5.60;2.97;;;;;;;5.89;98.60;100794.38;6093864;28;20256;-77
2022/11/24 08:25:35;;;;;;;5.87;4.03;;;;;;;5.97;98.46;100802.69;6087938;29;20241;-77
2022/11/24 08:28:58;;;;;;;7.93;3.57;;;;;;;6.03;98.26;100806.78;6086832;29;20255;-77
2022/11/24 08:32:19;;;;;;;7.63;3.07;;;;;;;5.96;98.79;100808.16;6088257;29;20251;-77
2022/11/24 08:35:39;;;;;;;8.97;4.10;;;;;;;5.97;98.86;100804.50;6093492;28;20225;-78
2022/11/24 08:39:02;;;;;;;4.93;3.30;;;;;;;6.07;98.56;100809.09;6088596;29;20667;-78
2022/11/24 08:42:23;;;;;;;9.37;4.13;;;;;;;6.33;99.49;100813.47;6088564;28;20261;-77
2022/11/24 08:45:44;;;;;;;4.67;3.73;;;;;;;6.39;98.41;100806.78;6079635;28;20233;-78
2022/11/24 08:49:06;;;;;;;4.13;3.80;;;;;;;6.50;98.29;100806.88;6077936;29;20642;-79
2022/11/24 08:52:26;;;;;;;7.33;5.37;;;;;;;6.53;97.48;100812.00;6081285;29;20534;-77
2022/11/24 08:55:48;;;;;;;5.07;2.63;;;;;;;6.53;97.21;100814.66;6080610;29;20236;-77
2022/11/24 08:59:12;;;;;;;7.50;3.67;;;;;;;6.67;97.38;100824.38;6084834;28;20232;-72
2022/11/24 09:02:33;;;;;;;5.40;4.13;;;;;;;7.20;96.80;100815.88;6073918;28;20696;-73
2022/11/24 09:05:53;;;;;;;6.67;4.30;;;;;;;7.96;92.27;100822.41;6074156;29;20623;-77
2022/11/24 09:09:14;;;;;;;7.53;4.50;;;;;;;8.03;91.03;100826.28;6082328;28;20236;-77
2022/11/24 09:12:36;;;;;;;7.43;4.77;;;;;;;8.63;88.43;100825.06;6082125;29;20244;-78
2022/11/24 09:16:02;;;;;;;8.60;3.47;;;;;;;8.59;87.18;100834.38;6084369;29;20233;-77
2022/11/24 09:19:23;;;;;;;4.10;2.90;;;;;;;7.74;89.64;100838.44;6087561;29;20312;-79
2022/11/24 09:22:46;;;;;;;8.63;4.37;;;;;;;7.90;89.81;100852.41;6102218;29;20232;-77
2022/11/24 09:26:08;;;;;;;5.70;3.47;;;;;;;7.93;90.69;100849.47;6090481;28;20252;-78
2022/11/24 09:29:31;;;;;;;33.33;4.73;;;;;;;7.44;91.87;100859.59;6085714;28;20228;-78
2022/11/24 09:32:51;;;;;;;4.67;3.30;;;;;;;7.50;92.51;100861.81;6092594;29;20240;-79
2022/11/24 09:36:13;;;;;;;8.00;3.77;;;;;;;7.78;92.41;100858.69;6088366;29;20232;-79
2022/11/24 09:39:34;;;;;;;8.30;3.37;;;;;;;7.93;91.53;100857.50;6087916;28;20240;-78
2022/11/24 09:43:00;;;;;;;3.83;2.53;;;;;;;8.00;90.94;100861.44;6089998;29;20571;-78
2022/11/24 09:46:30;;;;;;;4.90;4.37;;;;;;;7.98;89.98;100865.22;6084955;29;20251;-78
2022/11/24 09:49:58;;;;;;;10.40;3.43;;;;;;;9.29;87.40;100848.19;6087268;28;20315;-78
2022/11/24 09:53:29;;;;;;;9.80;4.10;;;;;;;9.46;83.71;100855.72;6083943;29;20232;-77
2022/11/24 09:56:52;;;;;;;8.53;4.30;;;;;;;8.37;88.22;100863.91;6086459;29;20248;-78
2022/11/24 10:00:14;;;;;;;3.43;2.70;;;;;;;8.07;89.40;100862.66;6086766;29;20263;-77
2022/11/24 10:03:40;;;;;;;3.77;2.60;;;;;;;8.31;89.57;100859.03;6081827;29;20528;-77
2022/11/24 10:07:12;;;;;;;5.70;4.67;;;;;;;9.11;88.15;100855.97;6093512;29;20232;-77
2022/11/24 10:10:44;;;;;;;3.87;3.40;;;;;;;9.64;84.74;100863.06;6089197;29;20735;-77
2022/11/24 10:14:32;;;;;;;7.47;4.10;;;;;;;9.29;84.08;100867.88;6086548;29;20795;-78
2022/11/24 10:18:07;;;;;;;7.83;3.57;;;;;;;9.13;85.94;100866.59;6086609;29;20245;-77
2022/11/24 10:21:46;;;;;;;4.47;2.70;;;;;;;9.43;84.54;100866.72;6085273;29;20228;-77
2022/11/24 10:25:18;;;;;;;7.97;2.83;;;;;;;8.94;86.28;100879.84;6088138;29;20233;-77
2022/11/24 10:28:43;;;;;;;4.67;3.57;;;;;;;8.54;88.56;100880.41;6082761;29;20228;-79
2022/11/24 10:32:11;;;;;;;9.77;3.17;;;;;;;8.63;88.57;100886.88;6072000;29;20241;-78
2022/11/24 10:35:37;;;;;;;4.83;3.33;;;;;;;8.71;88.44;100889.78;6094570;28;20232;-78
2022/11/24 10:39:05;;;;;;;14.97;3.37;;;;;;;8.66;88.98;100889.28;6088721;28;20625;-76
2022/11/24 10:42:30;;;;;;;11.37;5.07;;;;;;;8.56;88.43;100891.88;6089450;29;20255;-76
2022/11/24 10:45:51;;;;;;;4.73;2.13;;;;;;;8.75;88.46;100893.94;6086339;29;20228;-76
2022/11/24 10:49:18;;;;;;;8.90;3.70;;;;;;;8.65;88.40;100885.78;6087923;28;20260;-77
2022/11/24 10:52:43;;;;;;;3.50;3.20;;;;;;;8.57;89.93;100893.56;6086286;28;20237;-77
2022/11/24 10:56:05;;;;;;;3.30;2.73;;;;;;;8.60;89.77;100898.72;6081975;29;20232;-77
2022/11/24 10:59:31;;;;;;;5.47;3.60;;;;;;;8.62;90.23;100894.06;6092100;29;20236;-78
2022/11/24 11:03:11;;;;;;;8.23;3.20;;;;;;;8.78;88.92;100899.06;6088071;29;20232;-77
2022/11/24 11:06:33;;;;;;;5.87;2.80;;;;;;;9.05;89.09;100895.97;6083662;28;20229;-78
2022/11/24 11:10:27;;;;;;;5.10;2.93;;;;;;;8.86;89.22;100896.63;6081175;28;20236;-78
2022/11/24 11:13:55;;;;;;;6.43;3.27;;;;;;;8.89;89.54;100901.72;6085930;29;20738;-79
2022/11/24 11:17:40;;;;;;;3.97;3.30;;;;;;;8.87;89.84;100890.25;6084878;29;20240;-78
2022/11/24 11:21:03;;;;;;;5.20;3.07;;;;;;;9.08;89.01;100893.88;6083612;29;20265;-76
2022/11/24 11:24:24;;;;;;;2.93;2.60;;;;;;;9.05;88.53;100909.41;6084362;29;20241;-77
2022/11/24 11:27:45;;;;;;;9.53;4.13;;;;;;;9.01;89.05;100914.16;6082158;28;20232;-76
2022/11/24 11:31:23;;;;;;;13.47;7.03;;;;;;;9.27;88.59;100910.19;6083836;29;20770;-77
2022/11/24 11:34:47;;;;;;;5.87;3.40;;;;;;;9.31;87.99;100914.34;6086316;29;20229;-78
2022/11/24 11:38:11;;;;;;;2.73;2.50;;;;;;;9.35;87.68;100915.78;6089779;28;20244;-78
2022/11/24 11:41:34;;;;;;;9.80;2.70;;;;;;;8.98;89.32;100916.25;6089895;29;20237;-78
2022/11/24 11:45:02;;;;;;;8.17;4.87;;;;;;;9.10;89.06;100918.81;6086385;29;20232;-77
2022/11/24 11:48:30;;;;;;;10.40;2.50;;;;;;;9.16;88.70;100925.50;6087761;29;20304;-78
2022/11/24 11:52:08;;;;;;;10.80;3.00;;;;;;;9.01;89.68;100934.84;6086811;29;20236;-78
2022/11/24 11:55:40;;;;;;;13.80;3.27;;;;;;;9.18;89.27;100932.47;6084176;29;20228;-79
2022/11/24 11:59:25;;;;;;;5.53;3.73;;;;;;;9.33;88.43;100939.28;6089942;29;20643;-79
2022/11/24 12:03:19;;;;;;;12.83;4.90;;;;;;;9.80;87.36;100932.63;6084824;29;21026;-77
2022/11/24 12:06:56;;;;;;;4.10;3.27;;;;;;;10.07;85.14;100934.81;6079183;29;20221;-78
2022/11/24 12:10:25;;;;;;;5.77;3.93;;;;;;;10.40;84.19;100940.00;6082357;29;20276;-78
2022/11/24 12:14:05;;;;;;;5.77;3.07;;;;;;;10.05;84.15;100942.16;6087915;29;20266;-78
2022/11/24 12:17:33;;;;;;;5.17;2.97;;;;;;;9.86;85.14;100952.78;6085726;28;20339;-79
2022/11/24 12:21:05;;;;;;;7.73;4.70;;;;;;;9.54;86.50;100964.41;6078073;28;20235;-78
2022/11/24 12:24:40;;;;;;;6.27;3.13;;;;;;;9.54;86.81;100960.84;6089008;28;20244;-80
2022/11/24 12:28:14;;;;;;;11.50;3.87;;;;;;;9.61;86.62;100962.94;6089515;29;20717;-77
2022/11/24 12:31:45;;;;;;;5.33;2.53;;;;;;;9.48;86.69;100959.53;6089148;29;20233;-78
2022/11/24 12:35:16;;;;;;;14.17;3.40;;;;;;;9.45;86.02;100965.16;6088911;29;20236;-78
2022/11/24 12:38:52;;;;;;;4.10;3.20;;;;;;;9.49;85.65;100965.78;6087387;29;20229;-77
2022/11/24 12:42:26;;;;;;;8.07;3.63;;;;;;;9.57;85.58;100966.00;6087978;29;20662;-80
2022/11/24 12:45:57;;;;;;;6.00;4.40;;;;;;;9.56;85.45;100975.91;6083181;29;20232;-77
2022/11/24 12:49:27;;;;;;;7.47;4.53;;;;;;;9.70;85.55;100977.44;6088318;29;20314;-78
2022/11/24 12:52:53;;;;;;;3.63;2.53;;;;;;;9.70;85.45;100982.81;6086928;29;20786;-79
2022/11/24 12:56:16;;;;;;;4.13;3.67;;;;;;;9.58;85.57;100984.69;6084840;29;20232;-77
2022/11/24 12:59:45;;;;;;;5.47;3.30;;;;;;;9.51;85.11;100980.81;6084416;29;20662;-77
2022/11/24 13:03:20;;;;;;;6.77;3.87;;;;;;;9.54;84.58;100987.78;6086300;29;20260;-77
2022/11/24 13:06:50;;;;;;;7.50;2.87;;;;;;;9.50;83.91;100989.00;6087195;29;20331;-78
2022/11/24 13:10:31;;;;;;;9.93;4.30;;;;;;;9.52;84.26;100989.72;6088923;29;20244;-79
2022/11/24 13:13:58;;;;;;;4.83;3.30;;;;;;;9.52;84.05;101009.44;6082829;29;20252;-79
2022/11/24 13:17:32;;;;;;;5.03;3.20;;;;;;;9.49;84.22;101004.28;6089904;29;20232;-78
2022/11/24 13:20:53;;;;;;;3.77;2.93;;;;;;;9.47;84.27;101010.81;6088236;29;20236;-79
2022/11/24 13:24:26;;;;;;;4.93;2.77;;;;;;;9.49;84.70;101017.75;6083297;29;20236;-78
2022/11/24 13:27:51;;;;;;;6.73;3.53;;;;;;;9.47;84.50;101014.31;6082248;29;20228;-80
2022/11/24 13:31:22;;;;;;;3.60;3.30;;;;;;;9.44;84.60;101017.28;6080420;29;20319;-77
2022/11/24 13:35:03;;;;;;;3.93;2.53;;;;;;;9.37;83.87;101025.97;6085283;29;20247;-77
2022/11/24 13:38:40;;;;;;;4.77;3.40;;;;;;;9.41;83.44;101024.72;6084370;28;20229;-77
2022/11/24 13:42:02;;;;;;;6.13;3.20;;;;;;;9.40;83.29;101028.41;6086946;29;20244;-76
2022/11/24 13:45:48;;;;;;;15.30;4.13;;;;;;;9.43;82.54;101031.69;6089491;29;20297;-77
2022/11/24 13:49:14;;;;;;;4.57;3.20;;;;;;;9.42;83.12;101039.91;6083195;29;20226;-76
2022/11/24 13:52:48;;;;;;;7.07;2.93;;;;;;;9.38;82.79;101033.94;6088989;29;20566;-77
2022/11/24 13:56:22;;;;;;;3.67;3.30;;;;;;;9.39;83.45;101042.84;6087376;29;20228;-77
2022/11/24 13:59:43;;;;;;;8.67;3.17;;;;;;;9.36;83.85;101046.66;6086191;29;20562;-77
2022/11/24 14:03:15;;;;;;;8.30;3.50;;;;;;;9.32;84.79;101064.03;6086381;29;21069;-78
2022/11/24 14:06:41;;;;;;;3.83;2.97;;;;;;;9.72;85.08;101060.78;6086694;29;20224;-80
2022/11/24 14:10:03;;;;;;;7.13;3.37;;;;;;;9.78;85.79;101055.75;6095495;29;20307;-79
2022/11/24 14:13:27;;;;;;;5.70;2.97;;;;;;;10.03;89.48;101060.81;6092699;29;20749;-80
2022/11/24 14:16:48;;;;;;;11.17;4.13;;;;;;;9.94;84.57;101061.56;6096824;29;20228;-79
2022/11/24 14:20:21;;;;;;;5.03;2.33;;;;;;;9.83;84.34;101069.66;6090636;29;20762;-79
2022/11/24 14:23:45;;;;;;;5.50;2.70;;;;;;;9.94;84.35;101068.78;6090377;29;20236;-77
2022/11/24 14:27:14;;;;;;;7.00;3.43;;;;;;;9.63;83.93;101082.09;6086326;28;20237;-75
2022/11/24 14:30:35;;;;;;;10.60;4.87;;;;;;;9.59;84.36;101077.06;6083219;29;20232;-76
2022/11/24 14:34:13;;;;;;;8.70;3.10;;;;;;;9.47;84.45;101086.16;6087441;29;20236;-76
2022/11/24 14:37:35;;;;;;;6.37;3.23;;;;;;;9.47;84.56;101086.16;6088939;29;20243;-76
2022/11/24 14:40:56;;;;;;;6.03;3.10;;;;;;;9.40;85.08;101095.69;6076447;29;20237;-76
2022/11/24 14:44:20;;;;;;;7.60;3.80;;;;;;;9.38;84.99;101100.34;6090897;29;20256;-75
2022/11/24 14:47:45;;;;;;;10.87;3.00;;;;;;;9.39;85.62;101105.56;6087783;29;20225;-76
2022/11/24 14:51:11;;;;;;;15.67;3.27;;;;;;;9.39;85.64;101105.56;6082769;28;20230;-77
2022/11/24 14:54:32;;;;;;;5.80;3.30;;;;;;;9.36;85.23;101111.22;6084468;29;20225;-77
2022/11/24 14:57:53;;;;;;;12.67;5.13;;;;;;;9.33;86.27;101114.16;6090866;28;20236;-77
2022/11/24 15:01:28;;;;;;;9.87;4.13;;;;;;;9.35;85.62;101124.78;6083205;29;20236;-78
2022/11/24 15:04:56;;;;;;;10.30;3.93;;;;;;;9.34;85.34;101117.69;6089504;29;20241;-78
2022/11/24 15:08:17;;;;;;;7.10;3.57;;;;;;;9.34;85.19;101115.88;6087568;29;20232;-78
2022/11/24 15:11:38;;;;;;;6.23;4.07;;;;;;;9.29;85.54;101120.75;6087520;29;20248;-77
2022/11/24 15:15:02;;;;;;;7.40;4.83;;;;;;;9.29;85.92;101128.81;6083786;29;20237;-80
2022/11/24 15:18:31;;;;;;;9.83;3.07;;;;;;;9.31;85.12;101134.94;6088776;29;20245;-79
2022/11/24 15:21:52;;;;;;;4.87;2.80;;;;;;;9.31;84.93;101131.38;6088153;29;20772;-78
2022/11/24 15:25:34;;;;;;;9.73;3.87;;;;;;;9.28;85.39;101134.34;6087140;29;20220;-80
2022/11/24 15:28:55;;;;;;;7.67;6.00;;;;;;;9.24;86.02;101140.94;6082550;29;20576;-76
2022/11/24 15:32:16;;;;;;;9.37;4.40;;;;;;;9.14;86.58;101134.53;6086676;29;20237;-81
2022/11/24 15:35:39;;;;;;;6.73;4.10;;;;;;;9.06;87.00;101124.41;6090796;28;20233;-80
2022/11/24 15:38:59;;;;;;;7.80;4.23;;;;;;;8.96;87.51;101139.53;6086572;29;20303;-78
2022/11/24 15:42:20;;;;;;;10.13;5.10;;;;;;;8.98;87.58;101136.72;6071275;29;20278;-79
2022/11/24 15:45:41;;;;;;;8.20;3.87;;;;;;;8.95;87.52;101140.50;6079554;29;20561;-80
2022/11/24 15:49:01;;;;;;;5.03;3.63;;;;;;;8.99;87.32;101141.16;6087028;28;20623;-78
2022/11/24 15:52:24;;;;;;;10.60;4.90;;;;;;;9.27;88.05;101135.28;6080694;29;20583;-81
2022/11/24 15:55:45;;;;;;;12.40;3.93;;;;;;;9.14;88.09;101143.47;6083694;29;20557;-80
2022/11/24 15:59:07;;;;;;;8.37;4.20;;;;;;;9.04;87.27;101147.88;6078953;29;20229;-76